Time;durP1;ratioP1;P1;durP2;ratioP2;P2;SDS_P1;SDS_P2;PMS_P1;PMS_P2;Temp;Humidity;BMP_temperature;BMP_pressure;BME280_temperature;BME280_humidity;BME280_pressure;Samples;Min_cycle;Max_cycle;Signal;HPM_P1;HPM_P2
2022/04/01 00:00:15;;;;;;;;;;;3.10;99.90;;;;;;2602113;54;19954;31
2022/04/01 00:02:50;;;;;;;;;;;3.10;99.90;;;;;;2603061;54;20795;31
2022/04/01 00:05:33;;;;;;;;;;;3.00;99.90;;;;;;2602970;54;19997;31
2022/04/01 00:08:08;;;;;;;;;;;3.00;99.90;;;;;;2621701;46;20760;31
2022/04/01 00:10:43;;;;;;;;;;;3.00;99.90;;;;;;2603196;54;19977;31
2022/04/01 00:13:17;;;;;;;;;;;3.00;99.90;;;;;;2602947;54;19935;31
2022/04/01 00:15:52;;;;;;;;;;;3.00;99.90;;;;;;2621543;46;19943;31
2022/04/01 00:18:26;;;;;;;;;;;3.00;99.90;;;;;;2602978;54;20755;31
2022/04/01 00:21:04;;;;;;;;;;;3.00;99.90;;;;;;2602871;54;19934;31
2022/04/01 00:23:40;;;;;;;;;;;3.00;99.90;;;;;;2621506;46;19968;31
2022/04/01 00:26:17;;;;;;;;;;;3.00;99.90;;;;;;2602838;54;20732;31
2022/04/01 00:28:51;;;;;;;;;;;3.00;99.90;;;;;;2602569;54;19942;31
2022/04/01 00:31:25;;;;;;;;;;;3.00;99.90;;;;;;2602759;54;19940;31
2022/04/01 00:36:53;;;;;;;;;;;3.00;99.90;;;;;;2621539;46;19942;31
2022/04/01 00:39:30;;;;;;;;;;;3.00;99.90;;;;;;2602827;54;19957;31
2022/04/01 00:42:05;;;;;;;;;;;2.90;99.90;;;;;;2602960;54;20789;31
2022/04/01 00:44:41;;;;;;;;;;;2.90;99.90;;;;;;2602894;54;20737;31
2022/04/01 00:47:19;;;;;;;;;;;2.90;99.90;;;;;;2602622;54;19941;31
2022/04/01 00:49:56;;;;;;;;;;;2.90;99.90;;;;;;2603067;54;19961;31
2022/04/01 00:52:36;;;;;;;;;;;2.90;99.90;;;;;;2621368;47;20811;31
2022/04/01 00:55:11;;;;;;;;;;;2.90;99.90;;;;;;2602792;54;20775;31
2022/04/01 00:57:46;;;;;;;;;;;2.90;99.90;;;;;;2602779;54;20796;31
2022/04/01 01:00:25;;;;;;;;;;;2.90;99.90;;;;;;2603511;54;19989;31
2022/04/01 01:03:05;;;;;;;;;;;2.80;99.90;;;;;;2622007;46;19946;31
2022/04/01 01:05:42;;;;;;;;;;;2.80;99.90;;;;;;2603526;54;19942;31
2022/04/01 01:08:19;;;;;;;;;;;3.10;99.90;;;;;;2622301;46;19934;31
2022/04/01 01:10:57;;;;;;;;;;;2.60;99.90;;;;;;2622266;46;20729;31
2022/04/01 01:13:33;;;;;;;;;;;2.60;99.90;;;;;;2603457;54;20731;31
2022/04/01 01:16:09;;;;;;;;;;;2.50;99.90;;;;;;2720676;39;20390;31
2022/04/01 01:18:45;;;;;;;;;;;2.40;99.90;;;;;;2603326;54;20733;31
2022/04/01 01:21:23;;;;;;;;;;;2.40;99.90;;;;;;2603563;54;20037;31
2022/04/01 01:24:03;;;;;;;;;;;2.30;99.90;;;;;;2603429;54;20794;31
2022/04/01 01:26:44;;;;;;;;;;;2.30;99.90;;;;;;2621923;46;19934;31
2022/04/01 01:29:22;;;;;;;;;;;2.30;99.90;;;;;;2603398;54;19986;31
2022/04/01 01:31:57;;;;;;;;;;;2.30;99.90;;;;;;2622394;46;20727;31
2022/04/01 01:34:36;;;;;;;;;;;2.20;99.90;;;;;;2618286;46;19949;31
2022/04/01 01:37:10;;;;;;;;;;;2.20;99.90;;;;;;2603493;54;19935;31
2022/04/01 01:39:46;;;;;;;;;;;2.10;99.90;;;;;;2616446;46;19934;31
2022/04/01 01:42:25;;;;;;;;;;;2.10;99.90;;;;;;2603489;54;20880;31
2022/04/01 01:44:59;;;;;;;;;;;2.10;99.90;;;;;;2603325;54;20773;31
2022/04/01 01:47:35;;;;;;;;;;;2.00;99.90;;;;;;2621896;46;19989;31
2022/04/01 01:55:51;;;;;;;;;;;1.90;99.90;;;;;;2621933;46;19942;31
2022/04/01 01:58:30;;;;;;;;;;;1.90;99.90;;;;;;2621906;46;19962;31
2022/04/01 02:01:05;;;;;;;;;;;1.80;99.90;;;;;;2621872;46;19938;31
2022/04/01 02:03:40;;;;;;;;;;;1.80;99.90;;;;;;2603330;54;20762;31
2022/04/01 02:06:17;;;;;;;;;;;1.80;99.90;;;;;;2621989;46;20795;31
2022/04/01 02:08:53;;;;;;;;;;;1.80;99.90;;;;;;2603602;54;20774;31
2022/04/01 02:11:32;;;;;;;;;;;1.80;99.90;;;;;;2602513;54;20766;31
2022/04/01 02:14:09;;;;;;;;;;;1.70;99.90;;;;;;2621865;46;19935;31
2022/04/01 02:16:46;;;;;;;;;;;1.70;99.90;;;;;;2616952;46;19950;31
2022/04/01 02:19:23;;;;;;;;;;;1.70;99.90;;;;;;2603182;54;19947;31
2022/04/01 02:22:05;;;;;;;;;;;1.70;99.90;;;;;;2603328;54;19962;31
2022/04/01 02:24:41;;;;;;;;;;;1.70;99.90;;;;;;2606954;46;19934;31
2022/04/01 02:27:17;;;;;;;;;;;1.70;99.90;;;;;;2602726;54;19946;31
2022/04/01 02:29:55;;;;;;;;;;;1.60;99.90;;;;;;2603370;54;19950;31
2022/04/01 02:32:51;;;;;;;;;;;1.60;99.90;;;;;;2603493;54;22223;31
2022/04/01 02:35:43;;;;;;;;;;;1.60;99.90;;;;;;2603329;54;19958;31
2022/04/01 02:38:18;;;;;;;;;;;1.60;99.90;;;;;;2603363;54;19934;31
2022/04/01 02:40:53;;;;;;;;;;;1.60;99.90;;;;;;2603433;54;20020;31
2022/04/01 02:43:33;;;;;;;;;;;1.60;99.90;;;;;;2603343;54;19934;31
2022/04/01 02:46:13;;;;;;;;;;;1.50;99.90;;;;;;2602430;54;20053;31
2022/04/01 02:48:54;;;;;;;;;;;1.50;99.90;;;;;;2603374;54;19935;31
2022/04/01 02:51:40;;;;;;;;;;;1.50;99.90;;;;;;2603252;54;19934;31
2022/04/01 02:54:26;;;;;;;;;;;1.40;99.90;;;;;;2621764;46;19934;31
2022/04/01 02:57:03;;;;;;;;;;;1.40;99.90;;;;;;2621861;46;20677;31
2022/04/01 02:59:37;;;;;;;;;;;1.40;99.90;;;;;;2603199;54;19942;31
2022/04/01 03:02:18;;;;;;;;;;;1.40;99.90;;;;;;2603112;54;20685;31
2022/04/01 03:04:54;;;;;;;;;;;1.40;99.90;;;;;;2603189;54;19934;31
2022/04/01 03:07:32;;;;;;;;;;;1.40;99.90;;;;;;2621978;46;19940;31
2022/04/01 03:10:07;;;;;;;;;;;1.40;99.90;;;;;;2621356;46;20718;31
2022/04/01 03:12:45;;;;;;;;;;;1.40;99.90;;;;;;2619677;46;20659;31
2022/04/01 03:15:40;;;;;;;;;;;1.40;99.90;;;;;;2603345;54;19957;31
2022/04/01 03:18:28;;;;;;;;;;;1.30;99.90;;;;;;2603110;54;20677;31
2022/04/01 03:21:08;;;;;;;;;;;1.30;99.90;;;;;;2602821;54;20721;31
2022/04/01 03:23:47;;;;;;;;;;;1.30;99.90;;;;;;2603232;54;19935;31
2022/04/01 03:26:25;;;;;;;;;;;1.20;99.90;;;;;;2603245;54;20703;31
2022/04/01 03:29:10;;;;;;;;;;;1.20;99.90;;;;;;2621623;46;19934;31
2022/04/01 03:31:47;;;;;;;;;;;1.20;99.90;;;;;;2616812;46;20774;31
2022/04/01 03:34:22;;;;;;;;;;;1.20;99.90;;;;;;2602986;54;20025;31
2022/04/01 03:37:00;;;;;;;;;;;1.20;99.90;;;;;;2701655;39;21421;31
2022/04/01 03:39:35;;;;;;;;;;;1.10;99.90;;;;;;2602292;54;19942;31
2022/04/01 03:42:16;;;;;;;;;;;1.10;99.90;;;;;;2602443;54;21136;31
2022/04/01 03:44:53;;;;;;;;;;;1.00;99.90;;;;;;2603140;54;20792;31
2022/04/01 03:47:51;;;;;;;;;;;1.00;99.90;;;;;;2607216;46;19957;31
2022/04/01 03:50:28;;;;;;;;;;;1.00;99.90;;;;;;2620434;46;20763;31
2022/04/01 03:53:10;;;;;;;;;;;0.90;99.90;;;;;;2621725;46;19934;31
2022/04/01 03:55:47;;;;;;;;;;;0.80;99.90;;;;;;2621445;46;19993;31
2022/04/01 03:58:49;;;;;;;;;;;0.80;99.90;;;;;;2701412;39;20370;31
2022/04/01 04:01:52;;;;;;;;;;;0.80;99.90;;;;;;2603327;54;20673;31
2022/04/01 04:04:28;;;;;;;;;;;0.70;99.90;;;;;;2603168;54;20076;31
2022/04/01 04:07:02;;;;;;;;;;;0.70;99.90;;;;;;2602922;54;20739;31
2022/04/01 04:09:40;;;;;;;;;;;0.70;99.90;;;;;;2701415;39;20429;31
2022/04/01 04:12:16;;;;;;;;;;;0.70;99.90;;;;;;2720018;39;22139;31
2022/04/01 04:14:56;;;;;;;;;;;0.70;99.90;;;;;;2603022;54;21190;31
2022/04/01 04:17:37;;;;;;;;;;;0.70;99.90;;;;;;2603119;54;19934;31
2022/04/01 04:20:18;;;;;;;;;;;0.70;99.90;;;;;;2720228;39;20428;31
2022/04/01 04:23:01;;;;;;;;;;;0.70;99.90;;;;;;2621631;46;19993;31
2022/04/01 04:25:36;;;;;;;;;;;0.70;99.90;;;;;;2602880;54;20712;31
2022/04/01 04:28:17;;;;;;;;;;;0.70;99.90;;;;;;2621334;46;19942;31
2022/04/01 04:30:57;;;;;;;;;;;0.60;99.90;;;;;;2602847;54;19934;31
2022/04/01 04:33:48;;;;;;;;;;;0.60;99.90;;;;;;2603090;54;19939;31
2022/04/01 04:36:38;;;;;;;;;;;0.60;99.90;;;;;;2602843;54;20022;31
2022/04/01 04:39:17;;;;;;;;;;;0.60;99.90;;;;;;2602866;54;20738;31
2022/04/01 04:41:53;;;;;;;;;;;0.60;99.90;;;;;;2602834;54;20719;31
2022/04/01 04:44:29;;;;;;;;;;;0.60;99.90;;;;;;2620869;47;20694;31
2022/04/01 04:47:08;;;;;;;;;;;0.50;99.90;;;;;;2603414;47;19934;31
2022/04/01 04:49:44;;;;;;;;;;;0.50;99.90;;;;;;2602051;54;20025;31
2022/04/01 04:52:18;;;;;;;;;;;0.50;99.90;;;;;;2602167;54;19942;31
2022/04/01 04:55:01;;;;;;;;;;;0.50;99.90;;;;;;2607323;47;20006;31
2022/04/01 04:57:50;;;;;;;;;;;0.50;99.90;;;;;;2621563;47;20773;31
2022/04/01 05:00:25;;;;;;;;;;;0.50;99.90;;;;;;2602926;54;19954;31
2022/04/01 05:03:29;;;;;;;;;;;0.50;99.90;;;;;;2621508;47;19934;31
2022/04/01 05:06:11;;;;;;;;;;;0.50;99.90;;;;;;2602498;54;20842;31
2022/04/01 05:09:06;;;;;;;;;;;0.50;99.90;;;;;;2602925;54;19986;31
2022/04/01 05:11:59;;;;;;;;;;;0.50;99.90;;;;;;2602690;54;19950;31
2022/04/01 05:15:08;;;;;;;;;;;0.50;99.90;;;;;;2602695;54;19934;31
2022/04/01 05:17:45;;;;;;;;;;;0.40;99.90;;;;;;2602533;54;19935;31
2022/04/01 05:20:19;;;;;;;;;;;0.40;99.90;;;;;;2701143;39;21184;31
2022/04/01 05:23:07;;;;;;;;;;;0.40;99.90;;;;;;2601928;54;20741;31
2022/04/01 05:25:45;;;;;;;;;;;0.40;99.90;;;;;;2621147;47;19938;31
2022/04/01 05:28:42;;;;;;;;;;;0.50;99.90;;;;;;2602828;54;19956;31
2022/04/01 05:31:21;;;;;;;;;;;0.60;99.90;;;;;;2621208;47;20752;31
2022/04/01 05:34:00;;;;;;;;;;;0.60;99.90;;;;;;2602798;54;19934;31
2022/04/01 05:36:38;;;;;;;;;;;0.60;99.90;;;;;;2602558;54;20729;31
2022/04/01 05:39:15;;;;;;;;;;;0.60;99.90;;;;;;2701392;39;22134;31
2022/04/01 05:41:56;;;;;;;;;;;0.60;99.90;;;;;;2602793;54;19943;31
2022/04/01 05:44:32;;;;;;;;;;;0.60;99.90;;;;;;2602809;54;20791;31
2022/04/01 05:47:08;;;;;;;;;;;0.60;99.90;;;;;;2603325;54;20820;31
2022/04/01 05:49:44;;;;;;;;;;;0.60;99.90;;;;;;2603277;54;20788;31
2022/04/01 05:52:23;;;;;;;;;;;0.60;99.90;;;;;;2621892;46;19934;31
2022/04/01 05:55:11;;;;;;;;;;;0.60;99.90;;;;;;2602678;54;20008;31
2022/04/01 05:57:48;;;;;;;;;;;0.60;99.90;;;;;;2603329;54;19934;31
2022/04/01 06:00:23;;;;;;;;;;;0.60;99.90;;;;;;2603505;54;22104;31
2022/04/01 06:03:02;;;;;;;;;;;0.50;99.90;;;;;;2621915;46;19939;31
2022/04/01 06:05:37;;;;;;;;;;;0.50;99.90;;;;;;2603217;54;20005;31
2022/04/01 06:08:15;;;;;;;;;;;0.50;99.90;;;;;;2602951;54;19934;31
2022/04/01 06:10:55;;;;;;;;;;;0.50;99.90;;;;;;2603194;54;20016;31
2022/04/01 06:13:53;;;;;;;;;;;0.50;99.90;;;;;;2603302;54;20683;31
2022/04/01 06:17:00;;;;;;;;;;;0.50;99.90;;;;;;2603108;54;19935;31
2022/04/01 06:19:42;;;;;;;;;;;0.50;99.90;;;;;;2613303;46;20114;31
2022/04/01 06:22:20;;;;;;;;;;;0.50;99.90;;;;;;2603324;54;20843;31
2022/04/01 06:24:58;;;;;;;;;;;0.40;99.90;;;;;;2602599;54;20671;31
2022/04/01 06:27:39;;;;;;;;;;;0.40;99.90;;;;;;2603331;54;20741;31
2022/04/01 06:30:14;;;;;;;;;;;0.50;99.90;;;;;;2603260;54;20013;31
2022/04/01 06:32:53;;;;;;;;;;;0.60;99.90;;;;;;2603271;54;19947;31
2022/04/01 06:35:44;;;;;;;;;;;0.40;99.90;;;;;;2621922;46;20770;31
2022/04/01 06:38:35;;;;;;;;;;;0.40;99.90;;;;;;2621666;46;19935;31
2022/04/01 06:41:11;;;;;;;;;;;0.50;99.90;;;;;;2621738;46;19935;31
2022/04/01 06:44:00;;;;;;;;;;;0.50;99.90;;;;;;2603241;54;20814;31
2022/04/01 06:46:41;;;;;;;;;;;0.50;99.90;;;;;;2603005;54;19946;31
2022/04/01 06:49:25;;;;;;;;;;;0.50;99.90;;;;;;2621777;46;19935;31
2022/04/01 06:52:19;;;;;;;;;;;0.50;99.90;;;;;;2603489;54;20782;31
2022/04/01 06:54:56;;;;;;;;;;;0.40;99.90;;;;;;2602339;54;20795;31
2022/04/01 06:58:05;;;;;;;;;;;0.40;99.90;;;;;;2602977;54;21261;31
2022/04/01 07:00:53;;;;;;;;;;;0.40;99.90;;;;;;2621675;46;20658;31
2022/04/01 07:03:30;;;;;;;;;;;0.50;99.90;;;;;;2603415;54;20887;31
2022/04/01 07:08:53;;;;;;;;;;;0.60;99.90;;;;;;2621349;46;20025;31
2022/04/01 07:11:29;;;;;;;;;;;0.60;99.90;;;;;;2603386;54;20013;31
2022/04/01 07:14:06;;;;;;;;;;;0.60;99.90;;;;;;2678672;39;20481;31
2022/04/01 07:16:48;;;;;;;;;;;0.70;99.90;;;;;;2603136;54;19935;31
2022/04/01 07:19:30;;;;;;;;;;;0.60;99.90;;;;;;2621722;46;19938;31
2022/04/01 07:22:06;;;;;;;;;;;0.60;99.90;;;;;;2603375;54;19934;31
2022/04/01 07:27:21;;;;;;;;;;;0.60;99.90;;;;;;2621769;46;20752;31
2022/04/01 07:29:58;;;;;;;;;;;0.60;99.90;;;;;;2621429;46;19934;31
2022/04/01 07:32:33;;;;;;;;;;;0.70;99.90;;;;;;2621870;46;20775;31
2022/04/01 07:35:19;;;;;;;;;;;0.60;99.90;;;;;;2603243;54;19934;31
2022/04/01 07:37:58;;;;;;;;;;;0.70;99.90;;;;;;2621758;46;20719;31
2022/04/01 07:40:32;;;;;;;;;;;0.70;99.90;;;;;;2621758;46;19941;31
2022/04/01 07:43:07;;;;;;;;;;;0.80;99.90;;;;;;2621517;46;20757;31
2022/04/01 07:45:45;;;;;;;;;;;0.80;99.90;;;;;;2621746;46;20021;31
2022/04/01 07:48:22;;;;;;;;;;;0.80;99.90;;;;;;2621444;46;19934;31
2022/04/01 07:51:00;;;;;;;;;;;0.90;99.90;;;;;;2621449;46;20672;31
2022/04/01 07:53:40;;;;;;;;;;;0.90;99.90;;;;;;2605757;46;19935;31
2022/04/01 07:56:16;;;;;;;;;;;1.00;99.90;;;;;;2602369;54;20792;31
2022/04/01 07:58:50;;;;;;;;;;;0.90;99.90;;;;;;2602388;54;19949;31
2022/04/01 08:01:34;;;;;;;;;;;1.00;99.90;;;;;;2621411;46;20737;31
2022/04/01 08:04:09;;;;;;;;;;;1.00;99.90;;;;;;2614042;46;19942;31
2022/04/01 08:06:46;;;;;;;;;;;1.00;99.90;;;;;;2602980;54;19935;31
2022/04/01 08:09:23;;;;;;;;;;;1.00;99.90;;;;;;2621440;46;20835;31
2022/04/01 08:11:58;;;;;;;;;;;1.00;99.90;;;;;;2602854;54;20028;31
2022/04/01 08:14:33;;;;;;;;;;;1.00;99.90;;;;;;2603121;54;19989;31
2022/04/01 08:17:11;;;;;;;;;;;1.00;99.90;;;;;;2602856;54;20706;31
2022/04/01 08:19:50;;;;;;;;;;;1.00;99.90;;;;;;2621503;46;20037;31
2022/04/01 08:22:33;;;;;;;;;;;1.00;99.90;;;;;;2602935;54;19934;31
2022/04/01 08:25:12;;;;;;;;;;;1.00;99.90;;;;;;2603056;54;20727;31
2022/04/01 08:27:47;;;;;;;;;;;1.00;99.90;;;;;;2602654;54;20645;31
2022/04/01 08:30:22;;;;;;;;;;;1.00;99.90;;;;;;2621329;46;20661;31
2022/04/01 08:32:58;;;;;;;;;;;1.00;99.90;;;;;;2617395;46;19968;31
2022/04/01 08:35:34;;;;;;;;;;;1.00;99.90;;;;;;2621622;46;20631;31
2022/04/01 08:38:10;;;;;;;;;;;1.00;99.90;;;;;;2602932;54;19990;31
2022/04/01 08:40:48;;;;;;;;;;;1.00;99.90;;;;;;2612235;46;19947;31
2022/04/01 08:43:26;;;;;;;;;;;1.00;99.90;;;;;;2602280;54;19938;31
2022/04/01 08:46:03;;;;;;;;;;;1.10;99.90;;;;;;2602534;54;20757;31
2022/04/01 08:48:37;;;;;;;;;;;1.10;99.90;;;;;;2621281;47;19941;31
2022/04/01 08:51:13;;;;;;;;;;;1.10;99.90;;;;;;2602320;54;20742;31
2022/04/01 08:53:51;;;;;;;;;;;1.10;99.90;;;;;;2620795;47;20744;31
2022/04/01 08:56:25;;;;;;;;;;;1.10;99.90;;;;;;2602817;54;20025;31
2022/04/01 08:59:01;;;;;;;;;;;1.10;99.90;;;;;;2602812;54;19942;31
2022/04/01 09:01:42;;;;;;;;;;;1.10;99.90;;;;;;2602788;54;20806;31
2022/04/01 09:04:21;;;;;;;;;;;1.10;99.90;;;;;;2621311;47;19934;31
2022/04/01 09:06:57;;;;;;;;;;;1.10;99.90;;;;;;2602991;54;20485;31
2022/04/01 09:09:34;;;;;;;;;;;1.10;99.90;;;;;;2602744;54;19934;31
2022/04/01 09:12:11;;;;;;;;;;;1.10;99.90;;;;;;2601915;54;19939;31
2022/04/01 09:14:44;;;;;;;;;;;1.10;99.90;;;;;;2700714;39;21122;31
2022/04/01 09:17:21;;;;;;;;;;;1.20;99.90;;;;;;2620392;47;19942;31
2022/04/01 09:20:06;;;;;;;;;;;1.20;99.90;;;;;;2621565;47;20733;31
2022/04/01 09:22:38;;;;;;;;;;;1.20;99.90;;;;;;2720383;39;22334;31
2022/04/01 09:25:21;;;;;;;;;;;1.20;99.90;;;;;;2603648;54;19941;31
2022/04/01 09:27:56;;;;;;;;;;;1.20;99.90;;;;;;2603414;54;19957;31
2022/04/01 09:30:31;;;;;;;;;;;1.20;99.90;;;;;;2603501;54;19941;31
2022/04/01 09:33:08;;;;;;;;;;;1.20;99.90;;;;;;2603464;54;19942;31
2022/04/01 09:35:53;;;;;;;;;;;1.20;99.90;;;;;;2603580;54;19957;31
2022/04/01 09:38:27;;;;;;;;;;;1.20;99.90;;;;;;2603487;54;19985;31
2022/04/01 09:41:04;;;;;;;;;;;1.20;99.90;;;;;;2622008;46;19938;31
2022/04/01 09:43:42;;;;;;;;;;;1.20;99.90;;;;;;2621868;46;19934;31
2022/04/01 09:46:29;;;;;;;;;;;1.30;99.90;;;;;;2602646;54;19966;31
2022/04/01 09:49:07;;;;;;;;;;;1.30;99.90;;;;;;2603595;54;19957;31
2022/04/01 09:51:44;;;;;;;;;;;1.40;99.90;;;;;;2603399;54;19946;31
2022/04/01 09:54:21;;;;;;;;;;;1.50;99.90;;;;;;2603474;54;19946;31
2022/04/01 09:56:59;;;;;;;;;;;1.50;99.90;;;;;;2702148;39;22197;31
2022/04/01 09:59:36;;;;;;;;;;;1.50;99.90;;;;;;2603420;54;20672;31
2022/04/01 10:02:11;;;;;;;;;;;1.50;99.90;;;;;;2621909;46;19943;31
2022/04/01 10:04:45;;;;;;;;;;;1.50;99.90;;;;;;2603395;54;19994;31
2022/04/01 10:07:22;;;;;;;;;;;1.50;99.90;;;;;;2621690;46;20684;31
2022/04/01 10:09:56;;;;;;;;;;;1.50;99.90;;;;;;2701643;39;21569;31
2022/04/01 10:12:37;;;;;;;;;;;1.50;99.90;;;;;;2621830;46;19934;31
2022/04/01 10:15:19;;;;;;;;;;;1.60;99.90;;;;;;2602724;54;20557;31
2022/04/01 10:18:06;;;;;;;;;;;1.60;99.90;;;;;;2621168;46;20783;31
2022/04/01 10:20:41;;;;;;;;;;;1.60;99.90;;;;;;2619596;46;20779;31
2022/04/01 10:23:21;;;;;;;;;;;1.60;99.90;;;;;;2603289;54;19934;31
2022/04/01 10:25:54;;;;;;;;;;;1.70;99.90;;;;;;2603282;54;21082;31
2022/04/01 10:28:30;;;;;;;;;;;1.70;99.90;;;;;;2621693;46;19934;31
2022/04/01 10:31:15;;;;;;;;;;;1.80;99.90;;;;;;2602805;54;19949;31
2022/04/01 10:33:52;;;;;;;;;;;1.80;99.90;;;;;;2621876;46;19942;31
2022/04/01 10:36:42;;;;;;;;;;;1.90;99.90;;;;;;2603457;54;19934;31
2022/04/01 10:39:19;;;;;;;;;;;1.90;99.90;;;;;;2603282;54;19990;31
2022/04/01 10:42:16;;;;;;;;;;;2.00;99.90;;;;;;2603195;54;19943;31
2022/04/01 10:44:53;;;;;;;;;;;2.00;99.90;;;;;;2620755;46;20745;31
2022/04/01 10:53:49;;;;;;;;;;;2.10;99.90;;;;;;2621919;46;20749;31
2022/04/01 10:56:30;;;;;;;;;;;2.10;99.90;;;;;;2621832;46;19958;31
2022/04/01 10:59:06;;;;;;;;;;;2.10;99.90;;;;;;2603195;54;20717;31
2022/04/01 11:01:43;;;;;;;;;;;2.10;99.90;;;;;;2621796;46;19934;31
2022/04/01 11:04:24;;;;;;;;;;;2.00;99.90;;;;;;2603163;54;19977;31
2022/04/01 11:07:03;;;;;;;;;;;2.00;99.90;;;;;;2701593;39;20411;31
2022/04/01 11:09:49;;;;;;;;;;;2.00;99.90;;;;;;2602632;54;20739;31
2022/04/01 11:12:25;;;;;;;;;;;2.10;99.90;;;;;;2621719;46;20801;31
2022/04/01 11:15:11;;;;;;;;;;;2.00;99.90;;;;;;2621860;46;19935;31
2022/04/01 11:17:50;;;;;;;;;;;2.10;99.90;;;;;;2702075;39;21001;31
2022/04/01 11:20:27;;;;;;;;;;;2.10;99.90;;;;;;2602344;54;19941;31
2022/04/01 11:23:12;;;;;;;;;;;2.10;99.90;;;;;;2602859;54;20851;31
2022/04/01 11:25:57;;;;;;;;;;;2.10;99.90;;;;;;2603203;54;19935;31
2022/04/01 11:28:32;;;;;;;;;;;2.10;99.90;;;;;;2603034;54;20781;31
2022/04/01 11:31:13;;;;;;;;;;;2.20;99.90;;;;;;2603002;54;20775;31
2022/04/01 11:34:02;;;;;;;;;;;2.20;99.90;;;;;;2603055;54;19946;31
2022/04/01 11:36:39;;;;;;;;;;;2.20;99.90;;;;;;2621853;46;19934;31
2022/04/01 11:39:28;;;;;;;;;;;2.30;99.90;;;;;;2603263;54;20764;31
2022/04/01 11:42:07;;;;;;;;;;;2.30;99.90;;;;;;2602837;54;20773;31
2022/04/01 11:44:42;;;;;;;;;;;2.30;99.90;;;;;;2720421;39;20569;31
2022/04/01 11:47:18;;;;;;;;;;;2.50;99.90;;;;;;2602775;54;20683;31
2022/04/01 11:49:55;;;;;;;;;;;2.60;99.90;;;;;;2602979;54;20688;31
2022/04/01 11:52:38;;;;;;;;;;;2.60;99.90;;;;;;2603137;54;19941;31
2022/04/01 11:55:13;;;;;;;;;;;2.60;99.90;;;;;;2602975;54;20020;31
2022/04/01 11:57:51;;;;;;;;;;;2.70;99.90;;;;;;2603071;54;19935;31
2022/04/01 12:00:27;;;;;;;;;;;2.60;99.90;;;;;;2602989;54;19934;31
2022/04/01 12:03:04;;;;;;;;;;;2.60;99.90;;;;;;2603102;54;20005;31
2022/04/01 12:05:39;;;;;;;;;;;2.50;99.90;;;;;;2603175;54;19938;31
2022/04/01 12:11:06;;;;;;;;;;;2.60;99.90;;;;;;2603006;54;20760;31
2022/04/01 12:13:50;;;;;;;;;;;2.60;99.90;;;;;;2720047;39;20385;31
2022/04/01 12:16:27;;;;;;;;;;;2.60;99.90;;;;;;2603316;54;19934;31
2022/04/01 12:19:06;;;;;;;;;;;2.60;99.90;;;;;;2603071;54;20020;31
2022/04/01 12:21:42;;;;;;;;;;;2.60;99.90;;;;;;2602978;54;19938;31
2022/04/01 12:24:17;;;;;;;;;;;2.60;99.90;;;;;;2603198;54;19935;31
2022/04/01 12:26:53;;;;;;;;;;;2.60;99.90;;;;;;2602834;54;20005;31
2022/04/01 12:29:30;;;;;;;;;;;2.70;99.90;;;;;;2602988;54;19980;31
2022/04/01 12:32:09;;;;;;;;;;;2.70;99.90;;;;;;2602047;54;19940;31
2022/04/01 12:34:47;;;;;;;;;;;2.70;99.90;;;;;;2602899;54;19934;31
2022/04/01 12:37:21;;;;;;;;;;;2.70;99.90;;;;;;2602822;54;19941;31
2022/04/01 12:39:59;;;;;;;;;;;2.70;99.90;;;;;;2602842;54;19935;31
2022/04/01 12:42:37;;;;;;;;;;;2.80;99.90;;;;;;2621200;46;20032;31
2022/04/01 12:45:16;;;;;;;;;;;2.80;99.90;;;;;;2621341;46;20653;31
2022/04/01 12:47:56;;;;;;;;;;;2.90;99.90;;;;;;2602804;54;20009;31
2022/04/01 12:50:33;;;;;;;;;;;2.90;99.90;;;;;;2602784;54;20041;31
2022/04/01 12:53:10;;;;;;;;;;;3.00;99.90;;;;;;2602880;54;19938;31
2022/04/01 12:55:48;;;;;;;;;;;3.00;99.90;;;;;;2621983;47;20771;31
2022/04/01 12:58:25;;;;;;;;;;;3.10;99.90;;;;;;2602983;54;20692;31
2022/04/01 13:01:08;;;;;;;;;;;3.10;99.90;;;;;;2603753;54;20747;31
2022/04/01 13:03:49;;;;;;;;;;;3.20;99.90;;;;;;2621870;46;21089;31
2022/04/01 13:06:25;;;;;;;;;;;3.30;99.90;;;;;;2603525;54;19961;31
2022/04/01 13:09:07;;;;;;;;;;;3.30;99.90;;;;;;2603335;54;19954;31
2022/04/01 13:11:43;;;;;;;;;;;3.30;99.90;;;;;;2603256;54;20763;31
2022/04/01 13:14:24;;;;;;;;;;;3.30;99.90;;;;;;2603219;54;19989;31
2022/04/01 13:17:01;;;;;;;;;;;3.40;99.90;;;;;;2603645;54;19981;31
2022/04/01 13:19:38;;;;;;;;;;;3.40;99.90;;;;;;2603400;54;19981;31
2022/04/01 13:22:16;;;;;;;;;;;3.40;99.90;;;;;;2607009;46;20757;31
2022/04/01 13:24:52;;;;;;;;;;;3.50;99.90;;;;;;2622266;46;20020;31
2022/04/01 13:27:30;;;;;;;;;;;3.50;99.90;;;;;;2622201;46;19942;31
2022/04/01 13:30:05;;;;;;;;;;;3.60;99.90;;;;;;2603804;54;20786;31
2022/04/01 13:32:40;;;;;;;;;;;3.70;99.90;;;;;;2603475;54;20798;31
2022/04/01 13:35:25;;;;;;;;;;;3.70;99.90;;;;;;2603401;54;19941;31
2022/04/01 13:38:03;;;;;;;;;;;3.70;99.90;;;;;;2617245;46;20708;31
2022/04/01 13:40:38;;;;;;;;;;;3.70;99.90;;;;;;2616844;46;20669;31
2022/04/01 13:43:12;;;;;;;;;;;3.70;99.90;;;;;;2603530;54;19957;31
2022/04/01 13:45:50;;;;;;;;;;;3.70;99.90;;;;;;2603492;54;21067;31
2022/04/01 13:48:26;;;;;;;;;;;3.70;99.90;;;;;;2622059;46;20790;31
2022/04/01 13:51:02;;;;;;;;;;;3.80;99.90;;;;;;2603308;54;21193;31
2022/04/01 13:53:39;;;;;;;;;;;3.80;99.90;;;;;;2621868;46;19977;31
2022/04/01 13:56:14;;;;;;;;;;;3.80;99.90;;;;;;2602794;54;20013;31
2022/04/01 13:58:48;;;;;;;;;;;3.80;99.90;;;;;;2621926;46;19940;31
2022/04/01 14:01:21;;;;;;;;;;;3.80;99.90;;;;;;2603492;54;22323;31
2022/04/01 14:03:58;;;;;;;;;;;3.80;99.90;;;;;;2603271;54;19993;31
2022/04/01 14:06:34;;;;;;;;;;;4.40;99.90;;;;;;2603341;54;19934;31
2022/04/01 14:09:10;;;;;;;;;;;3.80;99.90;;;;;;2621944;46;19935;31
2022/04/01 14:12:03;;;;;;;;;;;3.80;99.90;;;;;;2603498;54;22294;31
2022/04/01 14:14:37;;;;;;;;;;;3.80;99.90;;;;;;2622048;46;19957;31
2022/04/01 14:17:12;;;;;;;;;;;3.80;99.90;;;;;;2603450;54;20791;31
2022/04/01 14:19:46;;;;;;;;;;;3.80;99.90;;;;;;2602839;54;20743;31
2022/04/01 14:22:22;;;;;;;;;;;3.80;99.90;;;;;;2621933;46;20673;31
2022/04/01 14:24:59;;;;;;;;;;;3.80;99.90;;;;;;2603273;54;20684;31
2022/04/01 14:27:36;;;;;;;;;;;3.80;99.90;;;;;;2603290;54;19934;31
2022/04/01 14:30:18;;;;;;;;;;;3.80;99.90;;;;;;2603436;54;19965;31
2022/04/01 14:32:57;;;;;;;;;;;3.80;99.90;;;;;;2603466;54;19941;31
2022/04/01 14:35:34;;;;;;;;;;;3.80;99.90;;;;;;2603408;54;19935;31
2022/04/01 14:38:11;;;;;;;;;;;3.90;99.90;;;;;;2602722;54;20024;31
2022/04/01 14:41:13;;;;;;;;;;;3.90;99.90;;;;;;2622029;46;20813;31
2022/04/01 14:43:48;;;;;;;;;;;3.90;99.90;;;;;;2621973;46;20751;31
2022/04/01 14:46:23;;;;;;;;;;;3.90;99.90;;;;;;2603115;54;20680;31
2022/04/01 14:49:00;;;;;;;;;;;3.90;99.90;;;;;;2602508;54;19964;31
2022/04/01 14:51:34;;;;;;;;;;;3.90;99.90;;;;;;2602352;54;19944;31
2022/04/01 14:54:09;;;;;;;;;;;3.90;99.90;;;;;;2773388;31;20473;31
2022/04/01 14:56:47;;;;;;;;;;;3.90;99.90;;;;;;2603126;54;20013;31
2022/04/01 14:59:23;;;;;;;;;;;3.90;99.90;;;;;;2603380;54;20789;31
2022/04/01 15:02:09;;;;;;;;;;;4.00;99.90;;;;;;2603228;54;20103;31
2022/04/01 15:04:49;;;;;;;;;;;4.00;99.90;;;;;;2602335;54;19938;31
2022/04/01 15:07:24;;;;;;;;;;;4.00;99.90;;;;;;2602437;54;20559;31
2022/04/01 15:09:59;;;;;;;;;;;4.00;99.90;;;;;;2603173;54;20770;31
2022/04/01 15:12:37;;;;;;;;;;;4.00;99.90;;;;;;2602486;54;20816;31
2022/04/01 15:15:21;;;;;;;;;;;4.00;99.90;;;;;;2602269;54;20045;31
2022/04/01 15:17:55;;;;;;;;;;;4.10;99.90;;;;;;2602195;54;20782;31
2022/04/01 15:20:36;;;;;;;;;;;4.10;99.90;;;;;;2603149;54;19935;31
2022/04/01 15:23:12;;;;;;;;;;;4.10;99.90;;;;;;2621508;46;20029;31
2022/04/01 15:25:47;;;;;;;;;;;4.10;99.90;;;;;;2615062;46;20791;31
2022/04/01 15:28:23;;;;;;;;;;;4.10;99.90;;;;;;2603027;54;20769;31
2022/04/01 15:31:02;;;;;;;;;;;4.20;99.90;;;;;;2603190;54;19941;31
2022/04/01 15:33:36;;;;;;;;;;;4.20;99.90;;;;;;2602154;54;20005;31
2022/04/01 15:36:12;;;;;;;;;;;3.50;99.90;;;;;;2603013;54;19935;31
2022/04/01 15:38:46;;;;;;;;;;;4.20;99.90;;;;;;2602206;54;20619;31
2022/04/01 15:41:21;;;;;;;;;;;4.20;99.90;;;;;;2603051;54;20732;31
2022/04/01 15:43:56;;;;;;;;;;;4.20;99.90;;;;;;2606546;46;19935;31
2022/04/01 15:46:39;;;;;;;;;;;4.20;99.90;;;;;;2603054;54;19938;31
2022/04/01 15:49:14;;;;;;;;;;;4.30;99.90;;;;;;2602909;54;19934;31
2022/04/01 15:51:48;;;;;;;;;;;4.50;99.90;;;;;;2603297;54;20758;31
2022/04/01 15:54:22;;;;;;;;;;;4.70;99.90;;;;;;2621490;46;20033;31
2022/04/01 15:56:56;;;;;;;;;;;4.70;99.90;;;;;;2603248;54;20745;31
2022/04/01 15:59:34;;;;;;;;;;;4.70;99.90;;;;;;2603164;54;20745;31
2022/04/01 16:02:12;;;;;;;;;;;4.60;99.90;;;;;;2621572;46;19973;31
2022/04/01 16:04:49;;;;;;;;;;;4.60;99.90;;;;;;2621169;46;19943;31
2022/04/01 16:07:24;;;;;;;;;;;4.60;99.90;;;;;;2614756;46;20489;31
2022/04/01 16:09:56;;;;;;;;;;;4.50;99.90;;;;;;2603103;54;19935;31
2022/04/01 16:12:32;;;;;;;;;;;4.50;99.90;;;;;;2602900;54;19934;31
2022/04/01 16:15:09;;;;;;;;;;;4.50;99.90;;;;;;2603117;54;19935;31